Robins Air Force Base

Airport
ICAO code: 
KWRB
Summary
ICAO Region: 
NAM
Territory: 
Location: 
Warner Robins, Georgia,
Coordinates: 
Aerial View: 
32° 38' 24.005" N, 83° 35' 30.188" W
Metar
Observation
KWRB 020956Z 00000KT 10SM CLR 03/03 A3012 RMK AO2A SLP203 T00300030
Station
Warner Robins Air Force Base
Date/Time
2021-12-02 09:56:00
Wind direction
Wind speed
00 kts
Lowest cloud amount
n/a
Temperature
3°C
Dew point
3°C
Humidity
100%
Weather condition
n/a

Description

Robins Air Force Base is a United States Air Force installation located in Houston County, Georgia, just east of the city of Warner Robins which is located 29 km southeast of Macon, Georgia.

Climatology

Humid “subtropical” climate (Köppen climate classification Cfa) - characterized by hot, humid summers and cool winters. Significant amounts of precipitation occur in all seasons in most areas.

Runways

Designator Length Width Surface Rops
15/33 3658 91 PEM Yes/Yes
Airport map: 
Aerial View: 

SKYbrary Partners:

Safety knowledge contributed by: